Time;durP1;ratioP1;P1;durP2;ratioP2;P2;SDS_P1;SDS_P2;PMS_P1;PMS_P2;Temp;Humidity;BMP_temperature;BMP_pressure;BME280_temperature;BME280_humidity;BME280_pressure;Samples;Min_cycle;Max_cycle;Signal;HPM_P1;HPM_P2
2022/11/19 00:01:01;;;;;;;;;;;18.50;64.60;;;;;;4511762;31;20037;-68
2022/11/19 00:03:29;;;;;;;;;;;18.50;64.50;;;;;;4527604;31;20105;-68
2022/11/19 00:05:55;;;;;;;;;;;18.50;64.50;;;;;;4513300;31;20031;-69
2022/11/19 00:08:21;;;;;;;;;;;18.50;64.50;;;;;;4515161;31;20040;-68
2022/11/19 00:10:46;;;;;;;;;;;18.50;64.60;;;;;;4501144;31;20049;-68
2022/11/19 00:13:13;;;;;;;;;;;18.50;64.60;;;;;;4514370;31;20150;-68
2022/11/19 00:15:39;;;;;;;;;;;18.40;64.50;;;;;;4512898;31;20196;-68
2022/11/19 00:18:05;;;;;;;;;;;18.40;64.50;;;;;;4524544;31;20024;-68
2022/11/19 00:20:32;;;;;;;;;;;18.50;64.60;;;;;;4514598;31;20024;-68
2022/11/19 00:22:57;;;;;;;;;;;18.40;64.50;;;;;;4512157;31;20166;-68
2022/11/19 00:25:24;;;;;;;;;;;18.40;64.40;;;;;;4526555;31;20039;-68
2022/11/19 00:27:51;;;;;;;;;;;18.40;64.50;;;;;;4489139;31;20058;-69
2022/11/19 00:30:18;;;;;;;;;;;18.40;64.50;;;;;;4513797;31;20017;-68
2022/11/19 00:32:44;;;;;;;;;;;18.40;64.40;;;;;;4513714;31;20020;-68
2022/11/19 00:35:13;;;;;;;;;;;18.30;64.40;;;;;;4512938;31;20035;-69
2022/11/19 00:37:38;;;;;;;;;;;18.30;64.50;;;;;;4514431;31;20013;-68
2022/11/19 00:40:06;;;;;;;;;;;18.30;64.40;;;;;;4511315;31;20021;-69
2022/11/19 00:42:33;;;;;;;;;;;18.30;64.50;;;;;;4514347;31;20016;-68
2022/11/19 00:44:58;;;;;;;;;;;18.30;64.40;;;;;;4511371;31;20106;-68
2022/11/19 00:47:24;;;;;;;;;;;18.20;64.30;;;;;;4514165;31;20036;-68
2022/11/19 00:49:50;;;;;;;;;;;18.20;64.40;;;;;;4503646;31;20029;-68
2022/11/19 00:52:16;;;;;;;;;;;18.20;64.30;;;;;;4511521;31;20073;-68
2022/11/19 00:54:42;;;;;;;;;;;18.20;64.30;;;;;;4514205;31;20072;-68
2022/11/19 00:57:07;;;;;;;;;;;18.20;64.30;;;;;;4510299;31;20017;-68
2022/11/19 00:59:33;;;;;;;;;;;18.20;64.30;;;;;;4514327;31;20021;-68
2022/11/19 01:01:59;;;;;;;;;;;18.20;64.30;;;;;;4509263;31;20159;-68
2022/11/19 01:04:25;;;;;;;;;;;18.20;64.30;;;;;;4513402;31;20021;-68
2022/11/19 01:06:51;;;;;;;;;;;18.10;64.20;;;;;;4503002;31;20032;-68
2022/11/19 01:09:16;;;;;;;;;;;18.10;64.20;;;;;;4510273;31;20477;-68
2022/11/19 01:11:43;;;;;;;;;;;18.10;64.20;;;;;;4510331;31;20132;-68
2022/11/19 01:14:09;;;;;;;;;;;18.10;64.20;;;;;;4512011;31;20029;-69
2022/11/19 01:16:36;;;;;;;;;;;18.10;64.20;;;;;;4514666;31;20066;-68
2022/11/19 01:19:02;;;;;;;;;;;18.10;64.20;;;;;;4512724;31;20139;-68
2022/11/19 01:21:31;;;;;;;;;;;18.10;64.20;;;;;;4514651;31;20033;-68
2022/11/19 01:23:57;;;;;;;;;;;18.10;64.20;;;;;;4512053;31;20375;-68
2022/11/19 01:26:23;;;;;;;;;;;18.00;64.20;;;;;;4513723;31;20544;-68
2022/11/19 01:28:49;;;;;;;;;;;18.00;64.20;;;;;;4507892;31;20159;-68
2022/11/19 01:31:17;;;;;;;;;;;18.00;64.20;;;;;;4507389;31;20035;-69
2022/11/19 01:33:44;;;;;;;;;;;18.00;64.10;;;;;;4514456;31;20150;-68
2022/11/19 01:36:14;;;;;;;;;;;18.00;64.10;;;;;;4524631;31;20024;-68
2022/11/19 01:38:41;;;;;;;;;;;18.00;64.10;;;;;;4513089;31;20190;-68
2022/11/19 01:41:07;;;;;;;;;;;18.00;64.10;;;;;;4503779;31;20033;-68
2022/11/19 01:43:53;;;;;;;;;;;17.90;64.10;;;;;;4509590;31;20055;-68
2022/11/19 01:46:20;;;;;;;;;;;17.90;64.10;;;;;;4504886;31;20049;-69
2022/11/19 01:48:48;;;;;;;;;;;17.90;64.10;;;;;;4509860;31;20147;-68
2022/11/19 01:51:32;;;;;;;;;;;17.90;64.10;;;;;;4514440;31;20040;-68
2022/11/19 01:53:59;;;;;;;;;;;17.90;64.10;;;;;;4511742;31;20139;-68
2022/11/19 01:56:25;;;;;;;;;;;17.90;64.10;;;;;;4525848;31;20051;-68
2022/11/19 01:58:54;;;;;;;;;;;17.90;64.10;;;;;;4513941;31;20186;-68
2022/11/19 02:01:20;;;;;;;;;;;17.90;64.10;;;;;;4512269;31;20047;-68
2022/11/19 02:03:46;;;;;;;;;;;17.80;64.10;;;;;;4514101;31;20231;-68
2022/11/19 02:06:13;;;;;;;;;;;17.80;64.10;;;;;;4511258;31;20028;-68
2022/11/19 02:08:40;;;;;;;;;;;17.80;64.00;;;;;;4502755;31;20013;-68
2022/11/19 02:11:16;;;;;;;;;;;17.80;64.00;;;;;;4510378;31;20496;-68
2022/11/19 02:13:46;;;;;;;;;;;17.80;64.00;;;;;;4513003;31;20029;-68
2022/11/19 02:16:19;;;;;;;;;;;17.80;64.00;;;;;;4512736;31;20614;-68
2022/11/19 02:18:53;;;;;;;;;;;17.80;64.00;;;;;;4504594;31;20037;-68
2022/11/19 02:21:24;;;;;;;;;;;17.70;63.90;;;;;;4510133;31;20055;-68
2022/11/19 02:24:00;;;;;;;;;;;17.70;63.90;;;;;;4512112;31;20033;-68
2022/11/19 02:26:52;;;;;;;;;;;17.70;63.90;;;;;;4513089;31;20051;-68
2022/11/19 02:29:26;;;;;;;;;;;17.70;63.90;;;;;;4512959;31;20028;-68
2022/11/19 02:31:52;;;;;;;;;;;17.70;64.80;;;;;;4496357;31;20328;-68
2022/11/19 02:34:30;;;;;;;;;;;17.70;63.80;;;;;;4505211;31;20489;-68
2022/11/19 02:36:59;;;;;;;;;;;17.70;63.90;;;;;;4512800;31;20473;-67
2022/11/19 02:39:47;;;;;;;;;;;17.70;63.80;;;;;;4514199;31;20033;-68
2022/11/19 02:42:20;;;;;;;;;;;17.60;63.90;;;;;;4516939;31;20056;-68
2022/11/19 02:45:01;;;;;;;;;;;17.60;63.90;;;;;;4527277;31;20032;-68
2022/11/19 02:47:32;;;;;;;;;;;17.60;63.80;;;;;;4516949;31;20409;-68
2022/11/19 02:50:01;;;;;;;;;;;17.60;63.70;;;;;;4516711;31;19991;-68
2022/11/19 02:52:28;;;;;;;;;;;17.60;64.70;;;;;;4515401;31;20035;-68
2022/11/19 02:54:53;;;;;;;;;;;17.60;63.80;;;;;;4506497;31;20100;-68
2022/11/19 02:57:19;;;;;;;;;;;17.50;63.80;;;;;;4511903;31;20072;-68
2022/11/19 03:05:35;;;;;;;;;;;17.50;64.60;;;;;;4514656;31;20184;-68
2022/11/19 03:08:00;;;;;;;;;;;17.50;63.70;;;;;;4516704;31;20040;-68
2022/11/19 03:10:27;;;;;;;;;;;17.50;63.70;;;;;;4514624;31;20081;-68
2022/11/19 03:12:58;;;;;;;;;;;17.50;63.80;;;;;;4516453;31;20043;-68
2022/11/19 03:18:24;;;;;;;;;;;17.50;63.70;;;;;;4514800;31;20029;-68
2022/11/19 03:21:04;;;;;;;;;;;17.50;63.70;;;;;;4516703;31;20477;-68
2022/11/19 03:23:37;;;;;;;;;;;17.40;63.70;;;;;;4514434;31;20025;-68
2022/11/19 03:26:05;;;;;;;;;;;17.40;63.70;;;;;;4505759;31;20056;-68
2022/11/19 03:28:32;;;;;;;;;;;17.40;63.70;;;;;;4514548;31;19981;-68
2022/11/19 03:30:59;;;;;;;;;;;17.40;63.50;;;;;;4515163;31;20043;-68
2022/11/19 03:33:30;;;;;;;;;;;17.40;63.60;;;;;;4516328;31;20060;-68
2022/11/19 03:35:59;;;;;;;;;;;17.40;63.60;;;;;;4514265;31;20111;-68
2022/11/19 03:38:31;;;;;;;;;;;17.40;63.50;;;;;;4528270;31;20024;-68
2022/11/19 03:40:57;;;;;;;;;;;17.40;63.50;;;;;;4514565;31;20174;-68
2022/11/19 03:43:25;;;;;;;;;;;17.40;63.50;;;;;;4503446;31;20017;-68
2022/11/19 03:45:52;;;;;;;;;;;17.30;63.50;;;;;;4515973;31;19988;-68
2022/11/19 03:48:20;;;;;;;;;;;17.30;63.50;;;;;;4514487;31;20029;-68
2022/11/19 03:51:10;;;;;;;;;;;17.30;63.50;;;;;;4527980;31;20076;-68
2022/11/19 03:53:36;;;;;;;;;;;17.30;63.40;;;;;;4514161;31;20055;-68
2022/11/19 03:56:03;;;;;;;;;;;17.30;63.40;;;;;;4515940;31;20343;-68
2022/11/19 03:58:35;;;;;;;;;;;17.30;63.40;;;;;;4513990;31;20080;-67
2022/11/19 04:01:00;;;;;;;;;;;17.30;63.40;;;;;;4514380;31;20032;-68
2022/11/19 04:03:31;;;;;;;;;;;17.20;63.30;;;;;;4516038;31;20045;-68
2022/11/19 04:05:56;;;;;;;;;;;17.30;63.40;;;;;;4513862;31;20028;-68
2022/11/19 04:08:22;;;;;;;;;;;17.20;63.30;;;;;;4514637;31;20027;-68
2022/11/19 04:10:48;;;;;;;;;;;17.20;63.30;;;;;;4506596;31;20452;-68
2022/11/19 04:13:13;;;;;;;;;;;17.20;63.20;;;;;;4510855;31;20047;-68
2022/11/19 04:15:39;;;;;;;;;;;17.20;63.10;;;;;;4515210;31;20009;-67
2022/11/19 04:18:05;;;;;;;;;;;17.20;63.20;;;;;;4512771;31;20369;-68
2022/11/19 04:20:31;;;;;;;;;;;17.20;63.20;;;;;;4515531;31;20039;-68
2022/11/19 04:22:57;;;;;;;;;;;17.20;63.20;;;;;;4499346;31;20021;-68
2022/11/19 04:25:23;;;;;;;;;;;17.10;63.10;;;;;;4514539;31;20025;-68
2022/11/19 04:27:48;;;;;;;;;;;17.10;63.00;;;;;;4513739;31;20021;-68
2022/11/19 04:30:14;;;;;;;;;;;17.10;63.00;;;;;;4503324;31;20029;-68
2022/11/19 04:32:40;;;;;;;;;;;17.10;63.10;;;;;;4514476;31;20488;-68
2022/11/19 04:35:06;;;;;;;;;;;17.10;63.10;;;;;;4514185;31;20163;-68
2022/11/19 04:37:33;;;;;;;;;;;17.10;63.10;;;;;;4515299;31;20568;-67
2022/11/19 04:39:59;;;;;;;;;;;17.10;63.10;;;;;;4513203;31;20036;-68
2022/11/19 04:42:24;;;;;;;;;;;17.10;63.00;;;;;;4514301;31;20027;-68
2022/11/19 04:44:50;;;;;;;;;;;17.10;63.00;;;;;;4513479;31;20149;-68
2022/11/19 04:47:16;;;;;;;;;;;17.00;62.90;;;;;;4527446;31;20017;-68
2022/11/19 04:49:41;;;;;;;;;;;17.00;63.00;;;;;;4526185;31;20037;-67
2022/11/19 04:52:07;;;;;;;;;;;17.00;63.00;;;;;;4504063;31;20507;-68
2022/11/19 04:54:34;;;;;;;;;;;17.00;63.00;;;;;;4512171;31;20032;-67
2022/11/19 04:56:59;;;;;;;;;;;17.00;62.90;;;;;;4498857;31;20016;-68
2022/11/19 04:59:25;;;;;;;;;;;17.00;62.90;;;;;;4514025;31;20031;-68
2022/11/19 05:01:54;;;;;;;;;;;17.00;62.90;;;;;;4511348;31;20139;-68
2022/11/19 05:04:19;;;;;;;;;;;17.00;62.90;;;;;;4515176;31;20713;-68
2022/11/19 05:06:45;;;;;;;;;;;17.00;63.00;;;;;;4496676;31;20058;-67
2022/11/19 05:09:11;;;;;;;;;;;17.00;63.00;;;;;;4505654;31;20433;-68
2022/11/19 05:11:36;;;;;;;;;;;16.90;62.90;;;;;;4514718;31;19992;-67
2022/11/19 05:14:02;;;;;;;;;;;16.90;62.90;;;;;;4513045;31;20095;-68
2022/11/19 05:16:28;;;;;;;;;;;16.90;62.90;;;;;;4514760;31;20032;-67
2022/11/19 05:18:53;;;;;;;;;;;16.90;62.80;;;;;;4511651;31;20454;-68
2022/11/19 05:21:19;;;;;;;;;;;16.90;62.80;;;;;;4513802;31;20032;-68
2022/11/19 05:23:45;;;;;;;;;;;16.90;62.80;;;;;;4497023;31;20033;-67
2022/11/19 05:26:10;;;;;;;;;;;16.90;62.80;;;;;;4492765;31;20163;-68
2022/11/19 05:28:36;;;;;;;;;;;16.90;62.80;;;;;;4514401;31;20045;-67
2022/11/19 05:31:03;;;;;;;;;;;16.90;62.80;;;;;;4513180;31;20162;-68
2022/11/19 05:33:28;;;;;;;;;;;16.80;62.70;;;;;;4526864;31;20017;-67
2022/11/19 05:35:54;;;;;;;;;;;16.80;62.70;;;;;;4512692;31;20048;-68
2022/11/19 05:38:21;;;;;;;;;;;16.80;62.70;;;;;;4503109;31;20044;-67
2022/11/19 05:40:46;;;;;;;;;;;16.80;62.80;;;;;;4511818;31;20029;-68
2022/11/19 05:43:12;;;;;;;;;;;16.80;62.80;;;;;;4514268;31;20095;-68
2022/11/19 05:45:38;;;;;;;;;;;16.80;62.70;;;;;;4513804;31;20057;-67
2022/11/19 05:48:04;;;;;;;;;;;16.80;62.80;;;;;;4512884;31;20031;-68
2022/11/19 05:50:30;;;;;;;;;;;16.80;62.70;;;;;;4526523;31;20028;-67
2022/11/19 05:52:56;;;;;;;;;;;16.70;62.70;;;;;;4497941;31;20025;-68
2022/11/19 05:55:22;;;;;;;;;;;16.70;62.70;;;;;;4502859;31;20040;-68
2022/11/19 05:57:48;;;;;;;;;;;16.70;62.70;;;;;;4510418;31;20024;-68
2022/11/19 06:00:15;;;;;;;;;;;16.70;62.60;;;;;;4514145;31;20032;-68
2022/11/19 06:02:41;;;;;;;;;;;16.70;62.60;;;;;;4525524;31;20033;-67
2022/11/19 06:05:06;;;;;;;;;;;16.70;62.70;;;;;;4504425;31;20040;-68
2022/11/19 06:07:32;;;;;;;;;;;16.70;62.70;;;;;;4507393;31;20037;-68
2022/11/19 06:09:58;;;;;;;;;;;16.70;62.70;;;;;;4497305;31;20072;-68
2022/11/19 06:12:24;;;;;;;;;;;16.70;62.70;;;;;;4514143;31;20035;-67
2022/11/19 06:14:49;;;;;;;;;;;16.70;62.60;;;;;;4511957;31;20017;-67
2022/11/19 06:17:15;;;;;;;;;;;16.70;62.70;;;;;;4499544;31;20028;-67
2022/11/19 06:19:41;;;;;;;;;;;16.60;62.60;;;;;;4513223;31;20025;-67
2022/11/19 06:22:08;;;;;;;;;;;16.60;62.70;;;;;;4512632;31;20155;-68
2022/11/19 06:24:33;;;;;;;;;;;16.60;62.60;;;;;;4526133;31;20150;-67
2022/11/19 06:26:59;;;;;;;;;;;16.60;62.60;;;;;;4510795;31;20032;-68
2022/11/19 06:29:25;;;;;;;;;;;16.60;62.60;;;;;;4513987;31;20090;-68
2022/11/19 06:31:50;;;;;;;;;;;16.60;62.60;;;;;;4497510;31;20015;-68
2022/11/19 06:34:16;;;;;;;;;;;16.60;62.50;;;;;;4513764;31;20087;-67
2022/11/19 06:36:42;;;;;;;;;;;16.60;62.60;;;;;;4524834;31;20090;-67
2022/11/19 06:39:08;;;;;;;;;;;16.50;62.50;;;;;;4512657;31;20028;-68
2022/11/19 06:41:34;;;;;;;;;;;16.60;62.60;;;;;;4513765;31;20050;-67
2022/11/19 06:44:00;;;;;;;;;;;16.50;62.50;;;;;;4511779;31;20013;-68
2022/11/19 06:46:26;;;;;;;;;;;16.50;62.60;;;;;;4514021;31;20164;-67
2022/11/19 06:48:52;;;;;;;;;;;16.50;62.50;;;;;;4511626;31;20150;-68
2022/11/19 06:51:18;;;;;;;;;;;16.50;62.50;;;;;;4513845;31;20029;-67
2022/11/19 06:53:43;;;;;;;;;;;16.50;62.50;;;;;;4512114;31;20036;-67
2022/11/19 06:56:09;;;;;;;;;;;16.50;62.50;;;;;;4513276;31;20013;-68
2022/11/19 06:58:35;;;;;;;;;;;16.50;62.50;;;;;;4513355;31;19992;-67
2022/11/19 07:01:00;;;;;;;;;;;16.50;62.40;;;;;;4511551;31;20040;-67
2022/11/19 07:03:26;;;;;;;;;;;16.50;62.50;;;;;;4512002;31;20174;-67
2022/11/19 07:06:00;;;;;;;;;;;16.40;62.50;;;;;;4509089;31;20013;-68
2022/11/19 07:08:26;;;;;;;;;;;16.40;62.40;;;;;;4513318;31;20109;-67
2022/11/19 07:10:51;;;;;;;;;;;16.40;62.40;;;;;;4510921;31;20013;-67
2022/11/19 07:13:17;;;;;;;;;;;16.40;62.40;;;;;;4513195;31;20479;-68
2022/11/19 07:15:43;;;;;;;;;;;16.40;62.50;;;;;;4505351;31;19973;-67
2022/11/19 07:18:09;;;;;;;;;;;16.40;62.50;;;;;;4507289;31;20068;-68
2022/11/19 07:20:35;;;;;;;;;;;16.40;62.50;;;;;;4513418;31;20062;-68
2022/11/19 07:23:00;;;;;;;;;;;16.40;62.50;;;;;;4511570;31;20562;-68
2022/11/19 07:25:26;;;;;;;;;;;16.40;62.60;;;;;;4515030;31;20475;-68
2022/11/19 07:27:52;;;;;;;;;;;16.40;62.60;;;;;;4513738;31;20074;-68
2022/11/19 07:30:18;;;;;;;;;;;16.30;62.50;;;;;;4516101;31;20039;-67
2022/11/19 07:32:44;;;;;;;;;;;16.40;62.50;;;;;;4501770;31;20518;-67
2022/11/19 07:35:10;;;;;;;;;;;16.30;62.40;;;;;;4514779;31;20199;-67
2022/11/19 07:37:35;;;;;;;;;;;16.30;62.60;;;;;;4509947;31;20024;-67
2022/11/19 07:40:03;;;;;;;;;;;16.30;62.50;;;;;;4508533;31;20493;-68
2022/11/19 07:45:14;;;;;;;;;;;16.30;62.60;;;;;;4514984;31;20072;-68
2022/11/19 07:47:39;;;;;;;;;;;16.30;62.70;;;;;;4515372;31;20048;-68
2022/11/19 07:50:06;;;;;;;;;;;16.30;62.60;;;;;;4505621;31;19969;-68
2022/11/19 07:52:32;;;;;;;;;;;16.30;62.70;;;;;;4512281;31;20532;-68
2022/11/19 07:54:57;;;;;;;;;;;16.30;62.70;;;;;;4505514;31;20177;-69
2022/11/19 07:57:23;;;;;;;;;;;16.30;62.70;;;;;;4513860;31;20436;-68
2022/11/19 07:59:50;;;;;;;;;;;16.20;62.70;;;;;;4515983;31;20044;-67
2022/11/19 08:02:16;;;;;;;;;;;16.20;61.30;;;;;;4514316;31;20095;-67
2022/11/19 08:04:41;;;;;;;;;;;16.20;61.00;;;;;;4515265;31;20480;-67
2022/11/19 08:07:07;;;;;;;;;;;16.20;61.70;;;;;;4498188;31;20135;-66
2022/11/19 08:09:33;;;;;;;;;;;16.20;62.20;;;;;;4508462;31;20032;-67
2022/11/19 08:11:59;;;;;;;;;;;16.20;62.20;;;;;;4506640;31;20039;-67
2022/11/19 08:14:25;;;;;;;;;;;16.10;62.30;;;;;;4513742;31;20017;-67
2022/11/19 08:19:35;;;;;;;;;;;16.10;62.80;;;;;;4514240;31;20219;-67
2022/11/19 08:22:01;;;;;;;;;;;16.10;63.00;;;;;;4504175;31;20382;-68
2022/11/19 08:24:26;;;;;;;;;;;16.10;63.30;;;;;;4517835;31;20042;-67
2022/11/19 08:26:52;;;;;;;;;;;16.10;63.40;;;;;;4504816;31;20069;-68
2022/11/19 08:29:20;;;;;;;;;;;16.10;63.40;;;;;;4516245;31;20139;-68
2022/11/19 08:31:46;;;;;;;;;;;16.10;63.50;;;;;;4506164;31;20480;-67
2022/11/19 08:34:13;;;;;;;;;;;16.10;63.30;;;;;;4504090;31;20021;-68
2022/11/19 08:36:38;;;;;;;;;;;16.20;63.80;;;;;;4501402;31;20045;-67
2022/11/19 08:39:05;;;;;;;;;;;16.20;64.60;;;;;;4509648;31;20106;-68
2022/11/19 08:44:19;;;;;;;;;;;16.20;65.30;;;;;;4501827;31;20193;-68
2022/11/19 08:46:45;;;;;;;;;;;16.30;65.60;;;;;;4505172;31;20159;-67
2022/11/19 08:49:11;;;;;;;;;;;16.40;65.80;;;;;;4514836;31;20035;-67
2022/11/19 08:51:37;;;;;;;;;;;16.40;65.60;;;;;;4508105;31;20074;-67
2022/11/19 08:54:03;;;;;;;;;;;16.50;64.60;;;;;;4507523;31;20003;-66
2022/11/19 08:56:29;;;;;;;;;;;16.60;64.40;;;;;;4503189;31;20029;-67
2022/11/19 08:58:55;;;;;;;;;;;16.70;64.50;;;;;;4502833;31;20039;-67
2022/11/19 09:01:21;;;;;;;;;;;16.90;64.30;;;;;;4507884;31;20021;-67
2022/11/19 09:03:46;;;;;;;;;;;17.00;64.20;;;;;;4521948;31;20086;-67
2022/11/19 09:06:12;;;;;;;;;;;17.10;64.00;;;;;;4509808;31;20151;-67
2022/11/19 09:08:38;;;;;;;;;;;17.20;63.70;;;;;;4514849;31;20055;-66
2022/11/19 09:11:05;;;;;;;;;;;17.30;63.50;;;;;;4514162;31;20024;-67
2022/11/19 09:13:30;;;;;;;;;;;17.50;63.30;;;;;;4513755;31;20093;-67
2022/11/19 09:15:56;;;;;;;;;;;17.50;63.10;;;;;;4505377;31;20029;-67
2022/11/19 09:18:22;;;;;;;;;;;17.60;62.90;;;;;;4509803;31;20017;-67
2022/11/19 09:20:51;;;;;;;;;;;17.70;62.80;;;;;;4514958;31;20031;-66
2022/11/19 09:23:17;;;;;;;;;;;17.70;62.70;;;;;;4512675;31;20036;-65
2022/11/19 09:25:43;;;;;;;;;;;17.80;62.50;;;;;;4507930;31;20079;-66
2022/11/19 09:28:10;;;;;;;;;;;17.90;62.50;;;;;;4513689;31;20029;-66
2022/11/19 09:30:35;;;;;;;;;;;18.00;63.20;;;;;;4513390;31;20564;-67
2022/11/19 09:33:02;;;;;;;;;;;18.00;62.20;;;;;;4514557;31;20017;-66
2022/11/19 09:35:28;;;;;;;;;;;18.00;62.00;;;;;;4506496;31;20079;-67
2022/11/19 09:37:54;;;;;;;;;;;18.10;62.00;;;;;;4522333;31;20036;-67
2022/11/19 09:40:22;;;;;;;;;;;18.20;62.00;;;;;;4507734;31;20012;-67
2022/11/19 09:42:56;;;;;;;;;;;18.20;61.80;;;;;;4511542;31;20033;-66
2022/11/19 09:45:32;;;;;;;;;;;18.20;61.70;;;;;;4511267;31;20129;-67
2022/11/19 09:47:58;;;;;;;;;;;18.20;61.60;;;;;;4505037;31;20040;-66
2022/11/19 09:50:27;;;;;;;;;;;18.30;61.50;;;;;;4498501;31;20351;-67
2022/11/19 09:53:08;;;;;;;;;;;18.30;61.50;;;;;;4496488;31;20540;-67
2022/11/19 09:55:35;;;;;;;;;;;18.30;61.40;;;;;;4498494;31;20394;-67
2022/11/19 09:58:03;;;;;;;;;;;18.40;61.40;;;;;;4508678;31;20055;-68
2022/11/19 10:00:30;;;;;;;;;;;18.40;61.40;;;;;;4513388;31;20017;-70
2022/11/19 10:03:00;;;;;;;;;;;18.40;61.40;;;;;;4505347;31;19985;-68
2022/11/19 10:05:38;;;;;;;;;;;18.40;61.30;;;;;;4509173;31;20461;-68
2022/11/19 10:08:12;;;;;;;;;;;18.40;61.40;;;;;;4512732;31;20064;-68
2022/11/19 10:10:43;;;;;;;;;;;18.40;61.40;;;;;;4504630;31;20110;-67
2022/11/19 10:13:29;;;;;;;;;;;18.40;61.30;;;;;;4502837;31;20147;-68
2022/11/19 10:15:57;;;;;;;;;;;18.40;61.20;;;;;;4500698;31;20044;-67
2022/11/19 10:18:47;;;;;;;;;;;18.40;61.10;;;;;;4500888;31;20020;-68
2022/11/19 10:21:17;;;;;;;;;;;18.40;61.00;;;;;;4501512;31;20044;-68
2022/11/19 10:23:53;;;;;;;;;;;18.40;61.00;;;;;;4500176;31;20529;-67
2022/11/19 10:26:42;;;;;;;;;;;18.50;60.90;;;;;;4504261;31;20021;-68
2022/11/19 10:29:27;;;;;;;;;;;18.50;60.70;;;;;;4507687;31;20167;-67
2022/11/19 10:32:08;;;;;;;;;;;18.50;60.60;;;;;;4501149;31;20029;-68
2022/11/19 10:34:35;;;;;;;;;;;18.50;60.60;;;;;;4500217;31;20028;-67
2022/11/19 10:37:07;;;;;;;;;;;18.60;60.50;;;;;;4502548;31;19992;-67
2022/11/19 10:39:45;;;;;;;;;;;18.60;60.50;;;;;;4498446;31;20024;-67
2022/11/19 10:42:21;;;;;;;;;;;18.60;60.40;;;;;;4504966;31;20029;-67
2022/11/19 10:44:54;;;;;;;;;;;18.60;60.40;;;;;;4502760;31;20029;-67
2022/11/19 10:47:35;;;;;;;;;;;18.60;60.30;;;;;;4507627;31;20033;-67
2022/11/19 10:50:01;;;;;;;;;;;18.70;60.30;;;;;;4500360;31;19973;-67
2022/11/19 10:52:33;;;;;;;;;;;18.70;60.20;;;;;;4500590;31;20036;-68
2022/11/19 10:55:11;;;;;;;;;;;18.70;60.20;;;;;;4499337;31;20464;-67
2022/11/19 10:57:36;;;;;;;;;;;18.70;60.10;;;;;;4506947;31;20057;-67
2022/11/19 11:00:02;;;;;;;;;;;18.70;60.10;;;;;;4501349;31;20074;-67
2022/11/19 11:02:30;;;;;;;;;;;18.70;60.10;;;;;;4503870;31;20410;-67
2022/11/19 11:05:13;;;;;;;;;;;18.80;60.10;;;;;;4511771;31;20029;-67
2022/11/19 11:07:52;;;;;;;;;;;18.80;60.00;;;;;;4516805;31;20072;-67
2022/11/19 11:10:29;;;;;;;;;;;18.80;60.00;;;;;;4514618;31;20097;-68
2022/11/19 11:15:49;;;;;;;;;;;18.80;59.90;;;;;;4516598;31;19981;-67
2022/11/19 11:18:16;;;;;;;;;;;18.80;59.90;;;;;;4514345;31;20162;-67
2022/11/19 11:20:49;;;;;;;;;;;18.80;59.90;;;;;;4515612;31;20047;-67
2022/11/19 11:23:24;;;;;;;;;;;18.80;59.80;;;;;;4502443;31;20155;-68
2022/11/19 11:25:55;;;;;;;;;;;18.80;59.90;;;;;;4516613;31;20036;-67
2022/11/19 11:28:22;;;;;;;;;;;18.90;60.00;;;;;;4515905;31;20376;-67
2022/11/19 11:30:58;;;;;;;;;;;18.90;59.80;;;;;;4527249;31;20035;-67
2022/11/19 11:33:47;;;;;;;;;;;18.90;59.80;;;;;;4516462;31;20150;-67
2022/11/19 11:36:15;;;;;;;;;;;18.90;59.80;;;;;;4514419;31;20039;-67
2022/11/19 11:38:42;;;;;;;;;;;18.90;59.80;;;;;;4516019;31;20537;-67
2022/11/19 11:41:10;;;;;;;;;;;18.90;59.70;;;;;;4515894;31;19981;-67
2022/11/19 11:43:38;;;;;;;;;;;19.00;59.70;;;;;;4514695;31;20059;-67
2022/11/19 11:46:09;;;;;;;;;;;19.00;59.70;;;;;;4515388;31;20021;-68
2022/11/19 11:48:42;;;;;;;;;;;19.00;59.60;;;;;;4514206;31;20052;-68
2022/11/19 11:51:23;;;;;;;;;;;19.00;59.60;;;;;;4505180;31;20028;-68
2022/11/19 11:54:02;;;;;;;;;;;19.00;59.60;;;;;;4502899;31;20032;-67
2022/11/19 11:56:27;;;;;;;;;;;19.00;59.50;;;;;;4514343;31;20033;-67
2022/11/19 11:59:04;;;;;;;;;;;19.00;59.50;;;;;;4516188;31;20016;-67
2022/11/19 12:01:30;;;;;;;;;;;19.10;59.50;;;;;;4513847;31;20037;-69
2022/11/19 12:03:56;;;;;;;;;;;19.10;59.60;;;;;;4501766;31;20035;-69
2022/11/19 12:06:31;;;;;;;;;;;19.10;59.50;;;;;;4526254;31;20167;-69
2022/11/19 12:09:03;;;;;;;;;;;19.10;59.50;;;;;;4514947;31;20033;-69
2022/11/19 12:11:53;;;;;;;;;;;19.10;59.40;;;;;;4515535;31;20021;-69
2022/11/19 12:14:30;;;;;;;;;;;19.10;59.40;;;;;;4513956;31;20032;-69
2022/11/19 12:17:04;;;;;;;;;;;19.10;59.50;;;;;;4515749;31;20083;-70
2022/11/19 12:19:40;;;;;;;;;;;19.10;59.50;;;;;;4514679;31;20039;-68
2022/11/19 12:22:18;;;;;;;;;;;19.10;59.50;;;;;;4513682;31;20063;-69
2022/11/19 12:24:50;;;;;;;;;;;19.10;59.50;;;;;;4515325;31;20033;-69
2022/11/19 12:27:19;;;;;;;;;;;19.10;59.60;;;;;;4513141;31;20106;-69
2022/11/19 12:29:46;;;;;;;;;;;19.10;59.60;;;;;;4515199;31;20072;-68
2022/11/19 12:32:27;;;;;;;;;;;19.10;59.60;;;;;;4513677;31;20025;-69
2022/11/19 12:35:07;;;;;;;;;;;19.20;59.70;;;;;;4513644;31;20128;-69
2022/11/19 12:37:54;;;;;;;;;;;19.20;59.60;;;;;;4515224;31;20077;-69
2022/11/19 12:40:29;;;;;;;;;;;19.20;59.60;;;;;;4512820;31;20371;-69
2022/11/19 12:43:13;;;;;;;;;;;19.20;59.70;;;;;;4513052;31;20039;-69
2022/11/19 12:45:54;;;;;;;;;;;19.20;59.70;;;;;;4514662;31;20041;-68
2022/11/19 12:48:23;;;;;;;;;;;19.10;59.70;;;;;;4524590;31;20021;-69
2022/11/19 12:50:55;;;;;;;;;;;19.10;59.80;;;;;;4514828;31;20032;-69
2022/11/19 12:53:40;;;;;;;;;;;19.10;59.90;;;;;;4512853;31;20089;-69
2022/11/19 12:56:24;;;;;;;;;;;19.10;59.90;;;;;;4513955;31;20048;-69
2022/11/19 12:59:08;;;;;;;;;;;19.10;59.90;;;;;;4514476;31;20036;-69
2022/11/19 13:01:46;;;;;;;;;;;19.20;59.90;;;;;;4512161;31;20221;-73
2022/11/19 13:04:13;;;;;;;;;;;19.20;59.80;;;;;;4512019;31;20032;-68
2022/11/19 13:06:43;;;;;;;;;;;19.20;59.80;;;;;;4512623;31;20032;-69
2022/11/19 13:09:33;;;;;;;;;;;19.20;59.90;;;;;;4513723;31;20052;-70
2022/11/19 13:12:17;;;;;;;;;;;19.20;59.80;;;;;;4515159;31;20137;-69
2022/11/19 13:14:53;;;;;;;;;;;19.20;59.90;;;;;;4512191;31;20047;-69
2022/11/19 13:17:19;;;;;;;;;;;19.20;59.90;;;;;;4514753;31;20359;-70
2022/11/19 13:19:47;;;;;;;;;;;19.20;60.10;;;;;;4514077;31;20046;-66
2022/11/19 13:22:18;;;;;;;;;;;19.20;60.10;;;;;;4512055;31;20528;-70
2022/11/19 13:24:47;;;;;;;;;;;19.20;60.30;;;;;;4500251;31;20037;-69
2022/11/19 13:27:15;;;;;;;;;;;19.20;60.40;;;;;;4512033;31;20021;-68
2022/11/19 13:29:43;;;;;;;;;;;19.20;60.50;;;;;;4514541;31;20040;-70
2022/11/19 13:32:19;;;;;;;;;;;19.20;60.50;;;;;;4499700;31;20057;-72
2022/11/19 13:34:49;;;;;;;;;;;19.20;60.50;;;;;;4513539;31;20039;-71
2022/11/19 13:37:26;;;;;;;;;;;19.20;61.40;;;;;;4502290;31;20046;-71
2022/11/19 13:39:59;;;;;;;;;;;19.30;60.50;;;;;;4504746;31;20039;-73
2022/11/19 13:45:14;;;;;;;;;;;19.40;60.50;;;;;;4513415;31;20113;-68
2022/11/19 13:47:54;;;;;;;;;;;19.40;60.40;;;;;;4513142;31;20024;-69
2022/11/19 13:50:22;;;;;;;;;;;19.50;60.50;;;;;;4526818;31;20009;-69
2022/11/19 13:53:04;;;;;;;;;;;19.50;60.40;;;;;;4509631;31;20025;-71
2022/11/19 13:55:40;;;;;;;;;;;19.50;60.30;;;;;;4511033;31;20028;-71
2022/11/19 13:58:14;;;;;;;;;;;19.60;60.30;;;;;;4507856;31;20650;-71
2022/11/19 14:00:41;;;;;;;;;;;19.60;60.30;;;;;;4510392;31;20095;-71
2022/11/19 14:03:08;;;;;;;;;;;19.60;60.30;;;;;;4513231;31;20048;-69
2022/11/19 14:05:56;;;;;;;;;;;19.60;60.30;;;;;;4497154;31;20002;-71
2022/11/19 14:08:37;;;;;;;;;;;19.60;60.30;;;;;;4511976;31;20028;-70
2022/11/19 14:11:06;;;;;;;;;;;19.60;60.30;;;;;;4502673;31;20103;-69
2022/11/19 14:13:40;;;;;;;;;;;19.60;60.40;;;;;;4510660;31;20032;-70
2022/11/19 14:27:19;;;;;;;;;;;19.50;60.60;;;;;;4511464;31;20028;-72
2022/11/19 14:29:44;;;;;;;;;;;19.50;60.60;;;;;;4513615;31;20158;-70
2022/11/19 14:32:10;;;;;;;;;;;19.50;60.60;;;;;;4512018;31;20041;-70
2022/11/19 14:34:41;;;;;;;;;;;19.60;60.60;;;;;;4511704;31;20114;-71
2022/11/19 14:37:25;;;;;;;;;;;19.60;60.50;;;;;;4511920;31;20049;-71
2022/11/19 14:40:00;;;;;;;;;;;19.60;60.40;;;;;;4510141;31;20040;-71
2022/11/19 14:42:26;;;;;;;;;;;19.60;60.30;;;;;;4525356;31;20033;-71
2022/11/19 14:45:04;;;;;;;;;;;19.60;60.30;;;;;;4498273;31;20036;-70
2022/11/19 14:47:33;;;;;;;;;;;19.60;60.30;;;;;;4512414;31;20154;-70
2022/11/19 14:49:59;;;;;;;;;;;19.60;60.30;;;;;;4513416;31;20142;-70
2022/11/19 14:52:28;;;;;;;;;;;19.60;60.30;;;;;;4509081;31;20055;-71
2022/11/19 14:54:57;;;;;;;;;;;19.60;60.20;;;;;;4504223;31;20524;-72
2022/11/19 14:57:22;;;;;;;;;;;19.70;60.10;;;;;;4504242;31;20097;-71
2022/11/19 14:59:50;;;;;;;;;;;19.70;60.10;;;;;;4502677;31;20381;-73
2022/11/19 15:02:16;;;;;;;;;;;19.70;60.10;;;;;;4501519;31;20033;-71